Aviation Digital Data Service (ADDS)

Output produced by METARs form (1801 UTC 19 October 2017)
found at http://www.aviationweather.gov/adds/metars/
 
FVHA 191600Z 07008KT 5000 HZ FEW090 24/14 Q1020 NOSIG
TAF FVHA 191600Z 1918/2024 05009KT 5000 HZ NSC
       
FVBU 191300Z VRB04KT CAVOK 38/05 Q1015 NOSIG
TAF FVBU 191000Z 1912/2018 VRB04KT 9000 NSC 
     BECMG 1918/1920 03010KT CAVOK 
     BECMG 2010/2012 SCT045 BKN100 
     PROB30 
     TEMPO 2012/2018 9999 -TSRA FEW040CB
       
FVFA 191300Z 03009KT 360V060 5000 HZ FEW040 37/10 Q1011 NOSIG
TAF FVFA 191600Z 1918/2024 07007KT 8000 NSC 
     TEMPO 1919/1922 36006KT